Cooper, Iowa
Current Conditions -  °F | °C
As of 5:15 AM on Monday 22 Dec 2014 (Local Time) from KPRO Reporting Station
Haze Haze  
Wind Chill: 32°   Ceiling: 700
Heat Index: 40°   Visibility: 5mi
Dew Point: 39°   Wind: 15mph
Humidity: 97%   Direction: 160°SSE
Pressure: 29.63"   Gusts: NA
Location:  41.92°N, 94.35°W
Report Text: KPRO 221115Z AUTO 16013KT 5SM BR OVC007 05/04 A2963 RMK AO2 T00450040
Loading
Personal Weather Stations






























Interactive Weather Map New forecast layout! Learn more

10-Day Weather Forecast

Advertisements
Track Severe Weather on mobile